Aérodrome :
LOGIN :

S'inscrire | Disclaimer

   EN    FR    IT 

 










Légende :    VFR   VFR Marginal   IFR   IFR Intensif   IFR Très Intensif
Visi : 
Plafond : 
>= 8 km
>= 3000ft
5 à 8 km
1000 à 3000 ft
1500m à 5 km
500 à 1000 ft
800 à 1500m
200 à 500 ft
< 800m
< 200 ft
Symboles :   Orages  Brouillard  Fortes neiges  Fortes précipitations  Vent > 20 kt
SIGMETs :   Divers  Orages  Givrage  Turbulence  Onde Orograph.  Cendres Volcan.






- Altitude de l'aérodrome : 461 ft
- Code IATA : WIE


ETOU - Wiesbaden Army

DERNIER METAR :
  • 291855Z AUTO 25005KT 9999 CLR M03/M06 A3029 RMK AO2 SLP267 T10281058 FZRANO $

METARs EXPIRÉS :
  • 291755Z AUTO 27004KT 9999 CLR M02/M05 A3030 RMK AO2 SLP270 T10181050 10007 21021 55002 FZRANO $
  • 291655Z AUTO 24003KT 9999 CLR M01/M05 A3030 RMK AO2 SLP269 T10131050 FZRANO $
  • 291555Z AUTO 21007KT 9999 CLR 00/M05 A3029 RMK AO2 SLP266 T00011049 FZRANO $

TAF AMD TAF ETOU
Valide du 29 à 15h jusqu'au 30 à 19h UTC


291545Z 2915/3019 21006KT 9999 BKN020 QNH3028INS
BECMG 2918/2919 25009KT 9999 SCT010 BKN015 QNH3015INS
BECMG 3001/3002 9999 OVC010 QNH3006INS
TEMPO 3003/3012 -RASN OVC006 TX06/3014Z TNM01/3003Z LAST NO AMDS AFT 2915 NEXT 3005



MET'MAP, la Météo Aéronautique d'un coup d'oeil ! - Copyright ORBIFLY Décembre 2007 - Disclaimer

ORBIFLY MET'MAP TEAM :

Programmation & Développement : Alexandra Zaïnal
Sur une idée originale de : Baudouin d'Aumeries
Soutien technique & logistique : Manuel Goepfert
Assistance : Marc-Olivier Méhu




SOURCES & CREDITS :

   NOAA